Time;durP1;ratioP1;P1;durP2;ratioP2;P2;SDS_P1;SDS_P2;PMS_P1;PMS_P2;Temp;Humidity;BMP_temperature;BMP_pressure;BME280_temperature;BME280_humidity;BME280_pressure;Samples;Min_cycle;Max_cycle;Signal;HPM_P1;HPM_P2
2022/04/19 00:01:11;;;;;;;6.25;2.72;;;;;;;7.17;nan;101685.25;4981537;28;20018;-58
2022/04/19 00:03:37;;;;;;;4.90;2.65;;;;;;;7.18;nan;101676.22;4979055;28;20034;-58
2022/04/19 00:06:04;;;;;;;7.40;3.38;;;;;;;7.14;nan;101681.13;4982835;28;20026;-57
2022/04/19 00:08:29;;;;;;;7.00;2.67;;;;;;;7.08;nan;101671.31;4979737;28;20034;-58
2022/04/19 00:10:55;;;;;;;3.97;2.35;;;;;;;7.04;nan;101669.25;4980723;28;20030;-58
2022/04/19 00:13:21;;;;;;;5.13;2.50;;;;;;;7.03;nan;101664.94;4981902;28;20036;-58
2022/04/19 00:15:47;;;;;;;5.20;2.35;;;;;;;7.02;nan;101669.44;4983152;28;20670;-58
2022/04/19 00:18:14;;;;;;;5.72;2.70;;;;;;;7.00;nan;101671.47;4980845;28;20133;-58
2022/04/19 00:20:42;;;;;;;4.90;2.63;;;;;;;6.98;nan;101674.34;4980146;28;20026;-57
2022/04/19 00:23:15;;;;;;;4.70;2.70;;;;;;;6.95;nan;101672.09;4976724;28;20493;-58
2022/04/19 00:25:42;;;;;;;7.78;2.95;;;;;;;6.96;nan;101672.91;4977665;28;20045;-58
2022/04/19 00:28:09;;;;;;;7.00;2.90;;;;;;;6.95;nan;101674.75;4980499;28;20027;-58
2022/04/19 00:30:35;;;;;;;4.53;2.83;;;;;;;6.91;nan;101673.50;4980144;28;20027;-58
2022/04/19 00:33:00;;;;;;;4.90;2.33;;;;;;;6.87;nan;101677.59;4983192;28;20030;-58
2022/04/19 00:35:28;;;;;;;4.32;2.50;;;;;;;6.79;nan;101675.09;4980216;28;20034;-58
2022/04/19 00:37:53;;;;;;;6.55;2.95;;;;;;;6.80;nan;101673.28;4982491;28;20023;-59
2022/04/19 00:40:19;;;;;;;5.35;3.03;;;;;;;6.80;nan;101668.75;4980790;28;20026;-58
2022/04/19 00:42:44;;;;;;;5.93;2.95;;;;;;;6.85;nan;101673.50;4981285;28;20029;-57
2022/04/19 00:45:10;;;;;;;3.97;2.60;;;;;;;6.88;nan;101671.25;4981831;28;20034;-58
2022/04/19 00:47:38;;;;;;;6.05;3.05;;;;;;;6.88;nan;101665.94;4982785;28;20437;-58
2022/04/19 00:50:05;;;;;;;4.97;2.75;;;;;;;6.87;nan;101664.28;4981169;28;20497;-58
2022/04/19 00:52:34;;;;;;;7.38;2.97;;;;;;;6.87;nan;101663.47;4979562;28;20511;-57
2022/04/19 00:55:01;;;;;;;6.70;2.80;;;;;;;6.85;nan;101661.00;4979336;28;20015;-57
2022/04/19 00:57:27;;;;;;;4.25;2.40;;;;;;;6.84;nan;101663.88;4981573;28;20038;-58
2022/04/19 00:59:55;;;;;;;6.47;3.17;;;;;;;6.82;nan;101660.56;4979944;28;20034;-58
2022/04/19 01:02:21;;;;;;;5.22;2.58;;;;;;;6.80;nan;101660.78;4980272;28;20687;-57
2022/04/19 01:04:48;;;;;;;4.50;2.67;;;;;;;6.74;nan;101658.91;4980294;28;20392;-58
2022/04/19 01:07:16;;;;;;;5.80;2.63;;;;;;;6.67;nan;101650.09;4982082;28;20029;-58
2022/04/19 01:09:41;;;;;;;3.92;2.60;;;;;;;6.68;nan;101646.41;4981288;28;20037;-58
2022/04/19 01:14:55;;;;;;;5.15;2.38;;;;;;;6.64;nan;101653.13;4981178;28;20033;-58
2022/04/19 01:17:21;;;;;;;7.05;2.95;;;;;;;6.64;nan;101653.13;4981433;28;20061;-58
2022/04/19 01:19:47;;;;;;;5.65;2.88;;;;;;;6.61;nan;101650.88;4982505;28;20034;-58
2022/04/19 01:22:13;;;;;;;6.45;3.03;;;;;;;6.58;nan;101648.63;4980405;28;20029;-57
2022/04/19 01:24:42;;;;;;;4.50;2.78;;;;;;;6.54;nan;101650.03;4980997;28;20511;-58
2022/04/19 01:27:09;;;;;;;5.35;2.30;;;;;;;6.53;nan;101651.88;4975234;28;20045;-58
2022/04/19 01:29:35;;;;;;;6.55;2.92;;;;;;;6.50;nan;101649.63;4979712;28;20538;-58
2022/04/19 01:32:04;;;;;;;8.38;2.92;;;;;;;6.47;nan;101650.03;4980006;28;20022;-57
2022/04/19 01:34:29;;;;;;;7.53;3.38;;;;;;;6.43;nan;101645.28;4982291;28;20065;-57
2022/04/19 01:36:55;;;;;;;4.88;2.70;;;;;;;6.38;nan;101643.22;4979967;28;20046;-57
2022/04/19 01:40:16;;;;;;;5.93;2.70;;;;;;;6.32;nan;101644.84;4981953;28;20030;-58
2022/04/19 01:42:07;;;;;;;7.32;3.45;;;;;;;6.25;nan;101651.13;4977297;28;20033;-58
2022/04/19 01:44:33;;;;;;;9.77;2.85;;;;;;;6.24;nan;101644.16;4982303;28;20054;-58
2022/04/19 01:47:07;;;;;;;5.57;2.72;;;;;;;6.20;nan;101645.59;4980104;28;20310;-58
2022/04/19 01:49:35;;;;;;;4.00;2.28;;;;;;;6.18;nan;101647.63;4982294;28;20041;-58
2022/04/19 01:52:02;;;;;;;5.30;2.30;;;;;;;6.12;nan;101635.94;4982118;28;20034;-58
2022/04/19 01:54:29;;;;;;;9.52;2.72;;;;;;;6.09;nan;101638.97;4982193;28;20026;-58
2022/04/19 01:56:55;;;;;;;6.22;3.38;;;;;;;6.07;nan;101641.00;4981929;28;20061;-58
2022/04/19 01:59:21;;;;;;;6.50;3.55;;;;;;;6.02;nan;101632.81;4980248;28;20801;-57
2022/04/19 02:01:48;;;;;;;7.00;3.17;;;;;;;5.97;nan;101640.56;4984961;28;20026;-58
2022/04/19 02:04:15;;;;;;;6.85;2.72;;;;;;;5.91;nan;101636.00;4981272;28;20522;-57
2022/04/19 02:06:41;;;;;;;6.05;3.22;;;;;;;5.89;nan;101632.69;4981028;28;21435;-57
2022/04/19 02:09:06;;;;;;;4.53;2.95;;;;;;;5.87;nan;101629.41;4981295;28;20041;-58
2022/04/19 02:11:32;;;;;;;10.15;3.33;;;;;;;5.85;nan;101631.44;4967079;28;20031;-58
2022/04/19 02:13:57;;;;;;;5.78;3.30;;;;;;;5.80;nan;101634.69;4963722;28;20511;-58
2022/04/19 02:16:23;;;;;;;4.75;3.17;;;;;;;5.82;nan;101631.84;4962828;28;20062;-58
2022/04/19 02:18:49;;;;;;;7.63;3.50;;;;;;;5.78;nan;101631.41;4964812;28;20036;-58
2022/04/19 02:21:14;;;;;;;6.10;3.58;;;;;;;5.75;nan;101632.63;4972773;28;20036;-58
2022/04/19 02:23:40;;;;;;;6.70;3.30;;;;;;;5.72;nan;101638.31;4983508;28;20022;-57
2022/04/19 02:26:05;;;;;;;8.63;4.13;;;;;;;5.72;nan;101630.34;4981012;28;20473;-60
2022/04/19 02:28:31;;;;;;;6.50;3.47;;;;;;;5.73;nan;101629.31;4967337;28;20499;-58
2022/04/19 02:30:58;;;;;;;8.18;3.65;;;;;;;5.73;nan;101628.50;4980014;28;20389;-58
2022/04/19 02:33:24;;;;;;;7.30;3.30;;;;;;;5.70;nan;101629.72;4979667;28;20034;-58
2022/04/19 02:35:49;;;;;;;7.70;3.15;;;;;;;5.68;nan;101631.75;4981372;28;20117;-58
2022/04/19 02:38:15;;;;;;;9.70;3.90;;;;;;;5.65;nan;101633.97;4979608;28;20026;-58
2022/04/19 02:40:41;;;;;;;7.45;3.47;;;;;;;5.62;nan;101637.03;4983035;28;20034;-58
2022/04/19 02:43:07;;;;;;;6.35;3.08;;;;;;;5.59;nan;101640.06;4974767;28;20937;-58
2022/04/19 02:45:32;;;;;;;7.93;3.30;;;;;;;5.59;nan;101632.09;4979702;28;20034;-58
2022/04/19 02:48:04;;;;;;;8.07;3.67;;;;;;;5.54;nan;101640.63;4986161;28;20038;-57
2022/04/19 02:50:43;;;;;;;10.10;3.70;;;;;;;5.47;nan;101634.47;4986296;28;20061;-58
2022/04/19 02:53:09;;;;;;;7.03;3.58;;;;;;;5.44;nan;101629.53;4980949;28;20089;-57
2022/04/19 02:55:36;;;;;;;9.50;3.67;;;;;;;5.38;nan;101623.13;4986239;28;20026;-57
2022/04/19 02:58:02;;;;;;;7.38;3.42;;;;;;;5.36;nan;101625.16;4982728;28;20389;-57
2022/04/19 03:00:28;;;;;;;9.80;4.07;;;;;;;5.34;nan;101624.53;4982677;28;20022;-58
2022/04/19 03:02:54;;;;;;;5.35;3.53;;;;;;;5.28;nan;101611.19;4985597;28;20139;-57
2022/04/19 03:05:20;;;;;;;7.78;3.90;;;;;;;5.26;nan;101614.06;4981987;28;20508;-57
2022/04/19 03:07:47;;;;;;;7.00;4.03;;;;;;;5.25;nan;101615.06;4984497;28;20026;-58
2022/04/19 03:10:13;;;;;;;9.18;4.07;;;;;;;5.25;nan;101616.91;4970047;28;20065;-58
2022/04/19 03:12:39;;;;;;;8.98;4.35;;;;;;;5.23;nan;101621.59;4977374;28;20042;-57
2022/04/19 03:15:06;;;;;;;7.00;4.32;;;;;;;5.20;nan;101619.28;4981688;28;20026;-58
2022/04/19 03:17:32;;;;;;;7.22;4.05;;;;;;;5.14;nan;101613.75;4982697;28;20471;-58
2022/04/19 03:19:58;;;;;;;8.13;4.07;;;;;;;5.13;nan;101619.25;4982979;28;20034;-59
2022/04/19 03:22:24;;;;;;;9.70;4.72;;;;;;;5.10;nan;101614.31;4978072;28;20560;-58
2022/04/19 03:27:42;;;;;;;11.82;4.70;;;;;;;5.05;nan;101614.06;4981287;28;20096;-59
2022/04/19 03:30:15;;;;;;;7.50;3.90;;;;;;;5.03;nan;101616.94;4982887;28;20030;-59
2022/04/19 03:32:44;;;;;;;9.38;3.97;;;;;;;4.99;nan;101623.59;4978344;28;20173;-59
2022/04/19 03:35:13;;;;;;;8.07;4.25;;;;;;;4.99;nan;101628.91;4967350;28;20034;-59
2022/04/19 03:37:39;;;;;;;12.68;4.20;;;;;;;5.00;nan;101622.59;4968891;28;20034;-59
2022/04/19 03:40:06;;;;;;;11.75;4.93;;;;;;;4.98;nan;101621.97;4984403;28;20041;-60
2022/04/19 03:42:32;;;;;;;8.30;4.45;;;;;;;4.94;nan;101620.72;4981979;28;20786;-58
2022/04/19 03:44:57;;;;;;;8.95;3.97;;;;;;;4.93;nan;101621.72;4981335;28;20038;-59
2022/04/19 03:47:23;;;;;;;6.13;3.95;;;;;;;4.94;nan;101623.38;4984360;28;20510;-60
2022/04/19 03:49:49;;;;;;;7.45;3.55;;;;;;;4.92;nan;101625.38;4972182;28;20034;-58
2022/04/19 03:52:14;;;;;;;7.97;4.28;;;;;;;4.89;nan;101625.78;4967064;28;20066;-59
2022/04/19 03:54:40;;;;;;;7.93;4.45;;;;;;;4.88;nan;101633.94;4965865;28;20037;-59
2022/04/19 03:57:08;;;;;;;11.73;4.75;;;;;;;4.85;nan;101629.81;4966633;28;20586;-58
2022/04/19 03:59:38;;;;;;;8.70;4.20;;;;;;;4.83;nan;101629.16;4979979;28;20121;-59
2022/04/19 04:02:04;;;;;;;8.65;4.60;;;;;;;4.80;nan;101632.19;4985306;28;20034;-59
2022/04/19 04:04:34;;;;;;;6.05;3.58;;;;;;;4.76;nan;101629.09;4979293;28;20038;-59
2022/04/19 04:07:04;;;;;;;7.78;4.28;;;;;;;4.70;nan;101623.72;4980424;28;20034;-57
2022/04/19 04:09:35;;;;;;;11.95;4.72;;;;;;;4.70;nan;101634.34;4983064;28;20134;-58
2022/04/19 04:12:06;;;;;;;8.05;4.32;;;;;;;4.67;nan;101638.22;4981800;28;20507;-58
2022/04/19 04:14:39;;;;;;;7.60;4.03;;;;;;;4.66;nan;101633.88;4983166;28;20038;-58
2022/04/19 04:17:05;;;;;;;8.32;5.03;;;;;;;4.67;nan;101642.66;4982922;28;20018;-59
2022/04/19 04:19:31;;;;;;;11.68;4.88;;;;;;;4.65;nan;101640.19;4982440;28;20030;-59
2022/04/19 04:21:57;;;;;;;11.45;5.25;;;;;;;4.63;nan;101639.56;4988013;28;20038;-59
2022/04/19 04:24:22;;;;;;;9.40;5.03;;;;;;;4.62;nan;101642.41;4982960;28;20026;-59
2022/04/19 04:26:48;;;;;;;8.40;4.63;;;;;;;4.62;nan;101637.94;4981883;28;20514;-59
2022/04/19 04:29:13;;;;;;;9.13;4.07;;;;;;;4.62;nan;101634.44;4983974;28;20030;-59
2022/04/19 04:31:39;;;;;;;7.63;4.20;;;;;;;4.63;nan;101636.09;4981448;28;20112;-58
2022/04/19 04:34:06;;;;;;;11.32;4.88;;;;;;;4.62;nan;101640.56;4981065;28;20030;-58
2022/04/19 04:36:32;;;;;;;9.05;4.78;;;;;;;4.63;nan;101644.06;4981640;28;20033;-59
2022/04/19 04:38:57;;;;;;;8.57;4.57;;;;;;;4.67;nan;101637.34;4985478;28;20034;-59
2022/04/19 04:41:22;;;;;;;10.45;4.53;;;;;;;4.65;nan;101639.38;4981837;28;20085;-58
2022/04/19 04:43:48;;;;;;;8.38;4.47;;;;;;;4.66;nan;101641.84;4981776;28;20029;-58
2022/04/19 04:51:41;;;;;;;11.20;4.38;;;;;;;4.78;nan;101655.47;4982483;28;20113;-59
2022/04/19 04:54:07;;;;;;;10.15;4.72;;;;;;;4.81;nan;101658.56;4978535;28;20075;-58
2022/04/19 04:56:33;;;;;;;8.65;4.63;;;;;;;4.85;nan;101653.72;4983159;28;20022;-59
2022/04/19 04:58:59;;;;;;;8.30;4.97;;;;;;;4.87;nan;101654.34;4979291;28;20053;-59
2022/04/19 05:01:25;;;;;;;9.10;5.50;;;;;;;4.91;nan;101652.97;4981713;28;20424;-59
2022/04/19 05:03:50;;;;;;;9.27;5.55;;;;;;;4.93;nan;101652.75;4979370;28;20073;-59
2022/04/19 05:06:16;;;;;;;12.75;5.60;;;;;;;4.97;nan;101657.50;4981655;28;20034;-60
2022/04/19 05:08:41;;;;;;;12.75;4.88;;;;;;;5.01;nan;101650.78;4982265;28;20096;-59
2022/04/19 05:11:07;;;;;;;11.30;4.20;;;;;;;5.10;nan;101660.31;4981127;28;20096;-59
2022/04/19 05:13:32;;;;;;;8.45;4.57;;;;;;;5.18;nan;101655.84;4983942;28;20060;-60
2022/04/19 05:15:58;;;;;;;10.23;4.78;;;;;;;5.22;nan;101652.66;4981242;28;20030;-60
2022/04/19 05:18:25;;;;;;;10.27;4.78;;;;;;;5.28;nan;101651.06;4981847;28;20034;-60
2022/04/19 05:20:50;;;;;;;8.68;5.30;;;;;;;5.33;nan;101659.28;4976844;28;20117;-60
2022/04/19 05:23:16;;;;;;;7.40;4.63;;;;;;;5.33;nan;101657.44;4979434;28;20042;-59
2022/04/19 05:25:41;;;;;;;9.40;5.15;;;;;;;5.34;nan;101651.09;4978399;28;20187;-60
2022/04/19 05:28:07;;;;;;;10.15;5.07;;;;;;;5.35;nan;101646.63;4980958;28;20541;-59
2022/04/19 05:30:33;;;;;;;9.18;5.28;;;;;;;5.42;nan;101653.66;4981547;28;20113;-59
2022/04/19 05:32:58;;;;;;;10.00;5.03;;;;;;;5.46;nan;101646.09;4978217;28;20077;-59
2022/04/19 05:35:24;;;;;;;7.75;4.72;;;;;;;5.49;nan;101650.22;4979683;28;20022;-60
2022/04/19 05:37:49;;;;;;;9.35;4.82;;;;;;;5.54;nan;101645.94;4981303;28;20091;-59
2022/04/19 05:40:15;;;;;;;12.35;5.10;;;;;;;5.62;nan;101645.00;4978863;28;20027;-59
2022/04/19 05:42:41;;;;;;;9.48;5.20;;;;;;;5.70;nan;101644.84;4980973;28;20041;-60
2022/04/19 05:45:07;;;;;;;7.00;4.43;;;;;;;5.79;nan;101649.00;4980503;28;20600;-59
2022/04/19 05:47:33;;;;;;;11.10;4.97;;;;;;;5.86;nan;101652.53;4975103;28;20026;-59
2022/04/19 05:49:58;;;;;;;9.60;5.13;;;;;;;5.93;nan;101648.13;4980487;28;20049;-59
2022/04/19 05:52:24;;;;;;;8.25;4.35;;;;;;;6.01;nan;101652.44;4979217;28;20492;-60
2022/04/19 05:54:49;;;;;;;9.60;4.47;;;;;;;6.12;nan;101653.75;4981888;28;20096;-60
2022/04/19 05:57:15;;;;;;;8.27;3.92;;;;;;;6.20;nan;101650.91;4975749;28;20034;-60
2022/04/19 05:59:40;;;;;;;11.10;4.80;;;;;;;6.25;nan;101654.63;4979947;28;20040;-60
2022/04/19 06:04:53;;;;;;;7.28;4.28;;;;;;;6.38;nan;101645.88;4980626;28;20116;-60
2022/04/19 06:07:26;;;;;;;6.85;3.60;;;;;;;6.43;nan;101643.44;4982766;28;20044;-60
2022/04/19 06:09:52;;;;;;;15.10;3.95;;;;;;;6.52;nan;101644.09;4982922;28;20101;-60
2022/04/19 06:12:17;;;;;;;7.28;3.92;;;;;;;6.58;nan;101643.28;4980361;28;20034;-60
2022/04/19 06:14:43;;;;;;;7.80;3.67;;;;;;;6.65;nan;101650.31;4981949;28;20044;-59
2022/04/19 06:17:17;;;;;;;6.25;3.65;;;;;;;6.75;nan;101646.41;4981678;28;20034;-58
2022/04/19 06:19:43;;;;;;;6.18;2.95;;;;;;;6.86;nan;101644.00;4982291;28;20400;-59
2022/04/19 06:22:08;;;;;;;7.88;3.38;;;;;;;6.97;nan;101650.56;4981803;28;20113;-59
2022/04/19 06:24:34;;;;;;;6.13;3.20;;;;;;;7.09;nan;101646.28;4979439;28;20522;-60
2022/04/19 06:27:00;;;;;;;9.00;3.35;;;;;;;7.20;nan;101647.53;4981475;28;20038;-60
2022/04/19 06:29:25;;;;;;;6.45;3.60;;;;;;;7.29;nan;101648.97;4982533;28;20034;-60
2022/04/19 06:31:51;;;;;;;6.82;2.70;;;;;;;7.39;nan;101640.59;4978480;28;20030;-60
2022/04/19 06:34:16;;;;;;;4.00;2.78;;;;;;;7.46;nan;101641.38;4979861;28;20439;-59
2022/04/19 06:36:46;;;;;;;4.63;2.67;;;;;;;7.54;nan;101644.69;4980091;28;20361;-60
2022/04/19 06:39:11;;;;;;;6.63;3.10;;;;;;;7.62;nan;101645.50;4981619;28;20475;-59
2022/04/19 06:41:37;;;;;;;3.95;2.67;;;;;;;7.72;nan;101648.53;4980258;28;20041;-59
2022/04/19 06:44:05;;;;;;;5.70;2.40;;;;;;;7.81;nan;101655.31;4977461;28;20039;-59
2022/04/19 06:46:31;;;;;;;8.95;3.50;;;;;;;7.85;nan;101646.69;4973746;28;20037;-58
2022/04/19 06:48:58;;;;;;;5.05;2.80;;;;;;;7.95;nan;101651.59;4962630;28;20034;-60
2022/04/19 06:51:25;;;;;;;6.88;2.60;;;;;;;8.03;nan;101645.22;4965660;28;20030;-59
2022/04/19 06:53:51;;;;;;;4.72;2.30;;;;;;;8.16;nan;101647.84;4963886;28;20042;-59
2022/04/19 06:56:17;;;;;;;5.32;2.47;;;;;;;8.29;nan;101647.00;4963864;28;20052;-59
2022/04/19 06:58:44;;;;;;;5.55;2.95;;;;;;;8.42;nan;101639.75;4962485;28;20033;-60
2022/04/19 07:01:12;;;;;;;4.68;2.90;;;;;;;8.54;nan;101641.78;4965769;28;20381;-60
2022/04/19 07:03:38;;;;;;;4.25;2.47;;;;;;;8.59;nan;101653.47;4962366;28;20169;-59
2022/04/19 07:06:05;;;;;;;5.85;2.92;;;;;;;8.62;nan;101647.72;4962902;28;20038;-60
2022/04/19 07:08:31;;;;;;;5.93;2.63;;;;;;;8.73;nan;101644.34;4964166;28;20034;-60
2022/04/19 07:10:58;;;;;;;3.58;2.67;;;;;;;8.83;nan;101640.41;4965410;28;20100;-59
2022/04/19 07:13:24;;;;;;;5.85;2.83;;;;;;;8.98;nan;101635.59;4967353;28;20037;-60
2022/04/19 07:15:50;;;;;;;4.57;2.55;;;;;;;9.19;nan;101637.91;4964122;28;20097;-60
2022/04/19 07:18:17;;;;;;;6.93;3.00;;;;;;;9.37;nan;101632.63;4962014;28;20034;-60
2022/04/19 07:28:55;;;;;;;8.52;2.13;;;;;;;9.98;nan;101645.22;4979006;28;20128;-59
2022/04/19 07:31:21;;;;;;;6.25;2.03;;;;;;;10.10;nan;101641.81;4972263;28;20116;-60
2022/04/19 07:33:46;;;;;;;4.60;1.83;;;;;;;10.22;nan;101642.72;4981614;28;20035;-60
2022/04/19 07:36:12;;;;;;;5.28;1.92;;;;;;;10.32;nan;101648.38;4983433;28;20034;-60
2022/04/19 07:38:38;;;;;;;4.13;1.50;;;;;;;10.47;nan;101646.13;4981273;28;20476;-60
2022/04/19 07:41:04;;;;;;;3.05;1.40;;;;;;;10.62;nan;101642.25;4984332;28;20077;-60
2022/04/19 07:43:30;;;;;;;1.90;1.35;;;;;;;10.73;nan;101644.13;4983176;28;20030;-60
2022/04/19 07:45:56;;;;;;;3.05;1.50;;;;;;;10.80;nan;101629.63;4983937;28;20455;-60
2022/04/19 07:48:22;;;;;;;1.88;1.50;;;;;;;10.92;nan;101628.81;4982339;28;20109;-60
2022/04/19 07:50:48;;;;;;;2.05;1.10;;;;;;;10.94;nan;101637.44;4982315;28;20039;-60
2022/04/19 07:53:13;;;;;;;2.60;1.60;;;;;;;10.97;nan;101635.16;4980384;28;20034;-59
2022/04/19 07:55:39;;;;;;;3.42;1.40;;;;;;;11.06;nan;101633.75;4980645;28;20074;-60
2022/04/19 07:58:05;;;;;;;3.25;1.55;;;;;;;11.13;nan;101639.88;4977185;28;21050;-59
2022/04/19 08:00:30;;;;;;;2.92;1.77;;;;;;;11.20;nan;101635.19;4973181;28;20034;-60
2022/04/19 08:02:56;;;;;;;4.22;1.30;;;;;;;11.29;nan;101640.22;4966769;28;20109;-60
2022/04/19 08:05:23;;;;;;;3.58;1.40;;;;;;;11.34;nan;101629.63;4979227;28;20084;-60
2022/04/19 08:07:49;;;;;;;1.80;1.25;;;;;;;11.43;nan;101633.59;4982455;28;20035;-60
2022/04/19 08:10:15;;;;;;;4.22;1.50;;;;;;;11.55;nan;101621.00;4982071;28;20034;-60
2022/04/19 08:12:41;;;;;;;4.38;1.52;;;;;;;11.71;nan;101623.00;4984519;28;20065;-60
2022/04/19 08:15:07;;;;;;;3.83;1.77;;;;;;;11.88;nan;101622.31;4976390;28;20105;-60
2022/04/19 08:17:33;;;;;;;4.20;2.22;;;;;;;11.99;nan;101626.84;4984786;28;20037;-61
2022/04/19 08:19:59;;;;;;;1.92;1.45;;;;;;;11.99;nan;101616.09;4981886;28;20423;-60
2022/04/19 08:22:25;;;;;;;3.90;1.50;;;;;;;12.01;nan;101622.03;4984152;28;20054;-59
2022/04/19 08:24:50;;;;;;;3.40;1.30;;;;;;;12.05;nan;101615.19;4984453;28;20026;-60
2022/04/19 08:27:17;;;;;;;2.80;1.40;;;;;;;12.00;nan;101613.19;4983546;28;20037;-59
2022/04/19 08:29:45;;;;;;;3.60;1.38;;;;;;;11.94;nan;101611.44;4984194;28;20030;-59
2022/04/19 08:32:11;;;;;;;2.72;1.38;;;;;;;11.95;nan;101609.56;4984403;28;20168;-58
2022/04/19 08:34:38;;;;;;;3.53;1.13;;;;;;;12.03;nan;101607.34;4984674;28;20496;-59
2022/04/19 08:37:04;;;;;;;1.77;1.50;;;;;;;12.07;nan;101613.88;4981697;28;20541;-60
2022/04/19 08:39:29;;;;;;;4.00;1.40;;;;;;;12.18;nan;101616.75;4983567;28;20416;-59
2022/04/19 08:41:55;;;;;;;5.43;1.50;;;;;;;12.34;nan;101619.53;4984803;28;20022;-59
2022/04/19 08:44:21;;;;;;;2.88;1.50;;;;;;;12.36;nan;101611.22;4982916;28;20134;-60
2022/04/19 08:46:46;;;;;;;2.83;1.30;;;;;;;12.42;nan;101620.22;4980898;28;20053;-59
2022/04/19 08:49:12;;;;;;;5.03;1.60;;;;;;;12.49;nan;101619.00;4984632;28;20038;-59
2022/04/19 08:51:40;;;;;;;6.00;1.67;;;;;;;12.59;nan;101616.53;4979981;28;20026;-60
2022/04/19 08:59:37;;;;;;;4.90;1.55;;;;;;;12.97;nan;101615.06;4979172;28;20136;-60
2022/04/19 09:02:04;;;;;;;3.70;1.58;;;;;;;13.07;nan;101617.91;4982161;28;20115;-60
2022/04/19 09:04:30;;;;;;;4.32;1.50;;;;;;;13.19;nan;101620.56;4965974;28;20136;-60
2022/04/19 09:06:57;;;;;;;2.92;1.23;;;;;;;13.28;nan;101613.69;4981729;28;20602;-60
2022/04/19 09:09:34;;;;;;;1.65;1.13;;;;;;;13.34;nan;101612.75;4981450;28;20940;-61
2022/04/19 09:12:11;;;;;;;2.53;1.27;;;;;;;13.50;nan;101613.81;4980974;28;20045;-61
2022/04/19 09:15:00;;;;;;;2.45;1.48;;;;;;;13.60;nan;101613.94;4983625;28;20034;-60
2022/04/19 09:17:33;;;;;;;3.22;1.50;;;;;;;13.76;nan;101609.59;4984811;28;20027;-59
2022/04/19 09:20:18;;;;;;;1.58;1.38;;;;;;;13.86;nan;101612.44;4980810;28;20033;-60
2022/04/19 09:22:59;;;;;;;3.25;1.45;;;;;;;13.97;nan;101616.88;4982977;28;20118;-60
2022/04/19 09:25:29;;;;;;;3.42;1.27;;;;;;;14.03;nan;101632.06;4978080;28;20038;-62
2022/04/19 09:27:57;;;;;;;3.53;1.50;;;;;;;14.02;nan;101621.53;4983979;28;20101;-61
2022/04/19 09:30:24;;;;;;;3.60;1.50;;;;;;;14.05;nan;101619.16;4982718;28;20036;-59
2022/04/19 09:33:05;;;;;;;4.95;1.70;;;;;;;13.95;nan;101624.41;4975375;28;20030;-61
2022/04/19 09:35:44;;;;;;;5.10;1.73;;;;;;;13.91;nan;101625.97;4978312;28;20030;-61
2022/04/19 09:38:11;;;;;;;11.00;2.58;;;;;;;13.90;nan;101624.34;4977792;28;20026;-62
2022/04/19 09:40:42;;;;;;;4.18;1.77;;;;;;;13.86;nan;101623.22;4982871;28;20041;-61
2022/04/19 09:43:13;;;;;;;4.03;1.77;;;;;;;13.83;nan;101627.22;4978995;28;20030;-60
2022/04/19 09:45:50;;;;;;;4.25;2.10;;;;;;;13.89;nan;101620.81;4978079;28;20026;-59
2022/04/19 09:48:21;;;;;;;5.85;1.88;;;;;;;14.05;nan;101615.66;4977168;28;20062;-60
2022/04/19 09:50:52;;;;;;;3.40;1.20;;;;;;;14.16;nan;101604.72;4980113;28;20030;-61
2022/04/19 09:53:21;;;;;;;2.97;1.27;;;;;;;14.40;nan;101599.91;4974741;28;20041;-58
2022/04/19 09:55:48;;;;;;;2.17;1.08;;;;;;;14.59;nan;101597.72;4977695;28;20027;-59
2022/04/19 09:58:15;;;;;;;7.72;1.38;;;;;;;14.73;nan;101598.94;4978307;28;20045;-59
2022/04/19 10:00:43;;;;;;;2.47;1.40;;;;;;;14.81;nan;101595.75;4982901;28;20777;-59
2022/04/19 10:08:10;;;;;;;6.50;1.90;;;;;;;15.13;nan;101603.06;4981361;28;20105;-60
2022/04/19 10:08:53;;;;;;;6.80;1.80;;;;;;;15.43;nan;101602.47;4977252;28;20045;-60
2022/04/19 10:11:19;;;;;;;3.92;1.50;;;;;;;15.76;nan;101590.56;4983464;28;20030;-59
2022/04/19 10:13:46;;;;;;;1.63;1.30;;;;;;;16.02;nan;101605.84;4982084;28;20436;-60
2022/04/19 10:16:14;;;;;;;1.30;1.20;;;;;;;16.02;nan;101589.63;4978741;28;20077;-59
2022/04/19 10:18:41;;;;;;;2.03;1.33;;;;;;;15.93;nan;101590.38;4978370;28;20249;-60
2022/04/19 10:21:13;;;;;;;4.18;1.40;;;;;;;16.02;nan;101586.91;4978033;28;20026;-59
2022/04/19 10:23:40;;;;;;;1.98;1.05;;;;;;;16.13;nan;101590.47;4977653;28;20508;-59
2022/04/19 10:26:18;;;;;;;2.38;1.42;;;;;;;16.12;nan;101588.03;4979696;28;20035;-60
2022/04/19 10:28:46;;;;;;;3.38;1.20;;;;;;;16.12;nan;101586.13;4970535;28;20041;-63
2022/04/19 10:31:12;;;;;;;7.10;1.40;;;;;;;16.06;nan;101603.41;4974818;28;20022;-60
2022/04/19 10:33:48;;;;;;;1.70;1.27;;;;;;;15.93;nan;101606.59;4971685;28;20031;-60
2022/04/19 10:36:34;;;;;;;3.08;1.27;;;;;;;15.85;nan;101602.50;4971081;28;20120;-59
2022/04/19 10:39:13;;;;;;;4.47;1.27;;;;;;;15.80;nan;101601.66;4973715;28;20030;-60
2022/04/19 10:42:05;;;;;;;3.28;1.40;;;;;;;15.69;nan;101609.72;4972132;28;20042;-60
2022/04/19 10:44:49;;;;;;;15.38;7.43;;;;;;;15.63;nan;101608.06;4968519;28;20049;-59
2022/04/19 10:47:23;;;;;;;24.80;12.63;;;;;;;15.63;nan;101604.53;4976125;28;20034;-59
2022/04/19 10:49:57;;;;;;;12.00;5.07;;;;;;;15.46;nan;101614.66;4976763;28;20064;-59
2022/04/19 10:52:39;;;;;;;9.85;4.05;;;;;;;15.09;nan;101616.28;4977846;28;20042;-60
2022/04/19 10:55:11;;;;;;;11.80;5.57;;;;;;;15.02;nan;101621.03;4977385;28;20051;-60
2022/04/19 11:00:34;;;;;;;29.83;15.07;;;;;;;14.98;nan;101621.81;4977985;28;20118;-58
2022/04/19 11:03:06;;;;;;;12.93;6.55;;;;;;;14.86;nan;101621.97;4981732;28;20045;-60
2022/04/19 11:05:41;;;;;;;3.80;2.22;;;;;;;14.92;nan;101628.25;4976826;28;20027;-60
2022/04/19 11:08:30;;;;;;;;;;;;;;;14.79;nan;101630.28;4976888;28;20632;-60
2022/04/19 11:10:55;;;;;;;2.35;1.05;;;;;;;15.06;nan;101614.06;4982980;28;19952;-60
2022/04/19 11:13:27;;;;;;;2.22;1.23;;;;;;;15.17;nan;101619.56;4980184;28;20532;-60
2022/04/19 11:15:59;;;;;;;4.70;1.33;;;;;;;15.29;nan;101612.91;4979475;28;20018;-60
2022/04/19 11:18:29;;;;;;;1.73;0.80;;;;;;;15.54;nan;101614.16;4980906;28;20116;-60
2022/04/19 11:20:58;;;;;;;2.35;1.10;;;;;;;15.78;nan;101617.31;4982722;28;20627;-60
2022/04/19 11:23:25;;;;;;;2.65;1.00;;;;;;;15.84;nan;101629.78;4980981;28;20030;-60
2022/04/19 11:25:53;;;;;;;2.33;0.98;;;;;;;15.76;nan;101614.88;4983178;28;20026;-60
2022/04/19 11:28:23;;;;;;;3.38;1.30;;;;;;;15.88;nan;101614.69;4983701;28;20026;-61
2022/04/19 11:30:57;;;;;;;3.72;1.27;;;;;;;16.04;nan;101618.28;4981954;28;20041;-59
2022/04/19 11:33:33;;;;;;;1.33;0.80;;;;;;;16.13;nan;101622.09;4976278;28;20892;-60
2022/04/19 11:36:16;;;;;;;5.57;1.30;;;;;;;16.19;nan;101616.47;4980111;28;20027;-60
2022/04/19 11:38:49;;;;;;;2.78;1.20;;;;;;;16.17;nan;101617.81;4981766;28;20038;-60
2022/04/19 11:46:58;;;;;;;2.83;1.17;;;;;;;16.07;nan;101629.38;4975116;28;20185;-60
2022/04/19 11:49:29;;;;;;;1.70;1.13;;;;;;;16.00;nan;101629.63;4978490;28;20038;-59
2022/04/19 11:51:57;;;;;;;2.85;1.10;;;;;;;16.09;nan;101624.50;4981398;28;20076;-58
2022/04/19 11:54:26;;;;;;;4.15;1.20;;;;;;;16.37;nan;101608.94;4982323;28;20122;-60
2022/04/19 11:57:03;;;;;;;4.13;1.23;;;;;;;16.59;nan;101610.34;4981378;28;20022;-60
2022/04/19 11:59:31;;;;;;;5.05;1.30;;;;;;;16.63;nan;101619.56;4983259;28;20061;-60
2022/04/19 12:01:59;;;;;;;4.38;1.42;;;;;;;16.63;nan;101614.16;4983017;28;20034;-60
2022/04/19 12:04:25;;;;;;;3.70;1.48;;;;;;;16.83;nan;101607.97;4981737;28;20104;-60
2022/04/19 12:06:52;;;;;;;3.55;1.20;;;;;;;17.01;nan;101603.94;4977596;28;20110;-60
2022/04/19 12:09:19;;;;;;;2.65;1.05;;;;;;;17.14;nan;101598.00;4980834;28;20088;-60
2022/04/19 12:11:48;;;;;;;2.28;1.05;;;;;;;17.32;nan;101604.75;4985136;28;20048;-59
2022/04/19 12:14:27;;;;;;;3.17;0.93;;;;;;;17.36;nan;101602.31;4980408;28;20038;-59
2022/04/19 12:16:58;;;;;;;2.28;1.00;;;;;;;17.53;nan;101598.22;4980746;28;20038;-60
2022/04/19 12:19:35;;;;;;;1.65;1.20;;;;;;;17.70;nan;101603.38;4981178;28;20034;-60
2022/04/19 12:22:02;;;;;;;1.13;0.80;;;;;;;17.98;nan;101593.00;4981775;28;20636;-60
2022/04/19 12:24:29;;;;;;;3.80;0.98;;;;;;;18.08;nan;101606.50;4985897;28;20084;-60
2022/04/19 12:27:06;;;;;;;1.67;1.00;;;;;;;18.03;nan;101601.09;4980189;28;20030;-60
2022/04/19 12:29:33;;;;;;;2.03;1.25;;;;;;;17.95;nan;101598.94;4984328;28;20492;-60